Lea County Regional Airport
KHOB : now visible

Airfield :











YOU CAN JOIN US ON...

 
LOGIN :

Register | Disclaimer

   EN    FR    IT 

 









Legend :    VFR   Marginal VFR   IFR   Intensive IFR   Very Intensive IFR
Visi :
Ceiling :
>= 8 km
>= 3000ft
5 to 8 km
1000 to 3000 ft
1500m to 5 km
500 to 1000 ft
800 to 1500m
200 to 500 ft
< 800m
< 200 ft
Symbols :   Thunderstorms  Fog  Heavy snow  Heavy precipitations  Wind > 20 kt






- Airport Elevation : 3661 ft


KHOB - Lea County Regional

CURRENT METAR :
  • 181250Z 24006KT 10SM SKC 18/04 A2995

EXPIRED METARs :
  • 181150Z 19006KT 10SM SKC 17/04 A2992
  • 181135Z AUTO 20009KT 10SM BKN024 OVC031 17/04 A2992 RMK AO2
  • 181115Z AUTO 20008KT 10SM BKN024 BKN045 BKN055 17/03 A2992 RMK AO2
  • 181055Z AUTO 19008KT 10SM FEW050 17/03 A2992 RMK AO2
  • 181035Z AUTO 19009KT 10SM FEW070 18/03 A2991 RMK AO2
  • 181015Z AUTO 18010KT 10SM CLR 20/03 A2991 RMK AO2

TAF KHOB
Valid from the 18 at 12:00 until the 19 at 12:00 UTC


181120Z 1812/1912 19007KT P6SM SKC
FM181400 28011G20KT P6SM SKC
KZFW FIR / North America



MET'MAP, your aeronautical weather chart ! - Copyright ORBIFLY December 2007 - Disclaimer

ORBIFLY MET'MAP TEAM :

Programming & Development : Alexandra Zaïnal
Original concept : Baudouin d'Aumeries
Technical & hardware support : Manuel Goepfert
Assistance : Marc-Olivier Méhu

Contact : metmap@orbifly.com




SOURCES & CREDITS :

   NOAA       Earth
Advisory